Time;durP1;ratioP1;P1;durP2;ratioP2;P2;SDS_P1;SDS_P2;PMS_P1;PMS_P2;Temp;Humidity;BMP_temperature;BMP_pressure;BME280_temperature;BME280_humidity;BME280_pressure;Samples;Min_cycle;Max_cycle;Signal;HPM_P1;HPM_P2
2022/06/11 00:07:59;;;;;;;17.83;12.73;;;15.70;99.90;;;;;;5051536;23;20024;-85
2022/06/11 00:10:26;;;;;;;23.65;14.45;;;15.70;99.90;;;;;;4937472;29;20127;-85
2022/06/11 00:12:55;;;;;;;22.58;14.05;;;15.60;99.90;;;;;;4936124;29;20063;-85
2022/06/11 00:23:43;;;;;;;22.88;14.80;;;15.00;99.90;;;;;;5031986;23;20074;31
2022/06/11 01:00:47;;;;;;;25.98;16.92;;;15.80;99.90;;;;;;5123361;23;20047;-85
2022/06/11 01:03:18;;;;;;;25.08;16.55;;;15.80;99.90;;;;;;4936011;29;20050;-85
2022/06/11 01:36:05;;;;;;;20.13;13.23;;;15.60;99.90;;;;;;5271279;23;20066;-85
2022/06/11 01:38:41;;;;;;;;;;;15.90;99.90;;;;;;4956794;29;20503;-85
2022/06/11 01:41:26;;;;;;;21.58;13.45;;;15.70;99.90;;;;;;4939991;29;19970;-85
2022/06/11 01:43:58;;;;;;;19.70;12.98;;;15.70;99.90;;;;;;4938806;29;20050;-85
2022/06/11 01:46:31;;;;;;;21.23;13.75;;;16.20;99.90;;;;;;4957048;28;20055;-86
2022/06/11 02:17:39;;;;;;;20.50;13.82;;;14.70;99.90;;;;;;4915825;29;20404;-86
2022/06/11 03:04:14;;;;;;;28.13;15.40;;;14.40;99.90;;;;;;5123274;23;20111;-85
2022/06/11 03:06:42;;;;;;;23.73;14.60;;;14.80;99.90;;;;;;4919187;29;20051;-85
2022/06/11 03:09:15;;;;;;;25.17;14.93;;;14.80;99.90;;;;;;4936006;29;20082;-87
2022/06/11 03:11:41;;;;;;;23.10;13.48;;;15.30;99.90;;;;;;4936255;29;20075;-85
2022/06/11 04:33:02;;;;;;;13.32;4.70;;;15.30;99.90;;;;;;4968686;23;20062;-87
2022/06/11 05:36:32;;;;;;;14.05;5.25;;;15.70;99.90;;;;;;4961978;28;20419;-87
2022/06/11 05:39:07;;;;;;;15.48;4.95;;;16.80;99.90;;;;;;4943832;29;20082;-87
2022/06/11 05:41:36;;;;;;;15.60;5.50;;;16.00;99.90;;;;;;4941168;29;20160;-87
2022/06/11 05:44:02;;;;;;;14.30;5.28;;;16.80;99.90;;;;;;4957486;28;20056;-86
2022/06/11 05:46:41;;;;;;;14.52;5.40;;;15.80;99.90;;;;;;4941477;29;20039;-86
2022/06/11 05:49:37;;;;;;;11.73;5.55;;;17.00;99.90;;;;;;4959130;28;20058;-87
2022/06/11 05:52:22;;;;;;;15.15;6.05;;;16.10;99.90;;;;;;4941648;29;20047;-86
2022/06/11 05:54:51;;;;;;;19.10;5.95;;;16.10;99.90;;;;;;4940002;29;20047;-86
2022/06/11 05:57:23;;;;;;;14.68;5.40;;;17.20;99.90;;;;;;4940221;29;20055;-87
2022/06/11 06:00:13;;;;;;;16.88;5.40;;;16.60;99.90;;;;;;4940637;29;20058;-86
2022/06/11 06:02:45;;;;;;;16.00;5.30;;;15.80;99.90;;;;;;4940926;29;20051;-87
2022/06/11 06:05:27;;;;;;;13.23;4.75;;;17.00;99.90;;;;;;4940868;29;20475;-86
2022/06/11 06:07:59;;;;;;;18.08;5.30;;;16.30;99.90;;;;;;4940570;29;20054;-86
2022/06/11 06:10:52;;;;;;;12.40;4.78;;;16.90;99.90;;;;;;4940326;29;20484;-86
2022/06/11 06:16:46;;;;;;;16.08;4.95;;;17.30;99.90;;;;;;4940545;29;20139;-86
2022/06/11 06:19:12;;;;;;;14.05;4.90;;;17.40;99.90;;;;;;4940088;29;20066;-87
2022/06/11 06:21:47;;;;;;;12.95;4.85;;;17.20;99.90;;;;;;4959352;28;20043;-86
2022/06/11 06:24:13;;;;;;;16.02;4.75;;;16.40;99.90;;;;;;4941037;29;20055;-86
2022/06/11 06:26:41;;;;;;;17.08;4.82;;;17.60;99.90;;;;;;4939657;29;20077;-86
2022/06/11 06:29:31;;;;;;;15.75;4.70;;;17.20;99.90;;;;;;4928394;29;20055;-86
2022/06/11 06:32:03;;;;;;;16.90;4.70;;;17.70;99.90;;;;;;4955773;28;20036;-87
2022/06/11 06:34:44;;;;;;;17.67;4.70;;;16.60;99.90;;;;;;4957310;28;20051;-86
2022/06/11 06:37:25;;;;;;;18.63;5.13;;;16.60;99.90;;;;;;4940345;29;20047;-86
2022/06/11 06:40:07;;;;;;;16.50;5.50;;;16.70;99.90;;;;;;4940623;29;20054;-86
2022/06/11 06:42:33;;;;;;;16.38;4.53;;;16.70;99.90;;;;;;4941876;29;20054;-86
2022/06/11 06:45:15;;;;;;;15.73;4.60;;;17.30;99.90;;;;;;4941809;28;20105;-87
2022/06/11 06:47:53;;;;;;;15.68;4.63;;;17.80;99.90;;;;;;4939677;29;20058;-86
2022/06/11 06:50:34;;;;;;;15.73;4.75;;;17.30;99.90;;;;;;4940714;29;20046;-87
2022/06/11 06:53:44;;;;;;;16.25;4.20;;;18.00;99.90;;;;;;4956420;28;20058;-89
2022/06/11 07:00:56;;;;;;;;;;;;;;;;;;;;;
2022/06/11 08:21:11;;;;;;;16.05;4.47;;;19.50;99.90;;;;;;5863648;23;19946;-86
2022/06/11 09:50:39;;;;;;;16.23;3.80;;;21.60;99.90;;;;;;5767243;23;20234;-85
2022/06/11 11:05:18;;;;;;;14.40;3.28;;;22.60;99.10;;;;;;5046774;23;20134;-89
2022/06/11 12:11:13;;;;;;;12.65;3.08;;;23.60;99.40;;;;;;4973636;28;20493;-90
2022/06/11 12:35:52;;;;;;;14.38;3.22;;;24.20;96.60;;;;;;4784542;29;20050;-89
2022/06/11 12:50:38;;;;;;;13.93;2.90;;;24.00;96.10;;;;;;4933258;29;20044;-87
2022/06/11 13:13:47;;;;;;;12.98;3.15;;;24.60;94.40;;;;;;4968812;23;20054;-92
2022/06/11 13:23:44;;;;;;;14.48;3.03;;;24.30;94.90;;;;;;4860994;29;20073;-85
2022/06/11 13:31:57;;;;;;;15.90;3.58;;;24.60;96.10;;;;;;5909527;23;20086;-86
2022/06/11 13:42:20;;;;;;;13.68;3.30;;;24.60;95.50;;;;;;4936753;29;20095;-89
2022/06/11 13:45:42;;;;;;;12.35;2.92;;;24.70;95.30;;;;;;4937098;29;20086;-85
2022/06/11 14:14:41;;;;;;;13.73;3.17;;;25.20;94.60;;;;;;4896292;29;20087;-87
2022/06/11 14:17:53;;;;;;;11.30;3.08;;;25.30;94.10;;;;;;4900322;29;20067;-87
2022/06/11 14:53:31;;;;;;;;;;;;;;;;;;;;;
2022/06/11 14:56:51;;;;;;;;;;;;;;;;;;;;;
2022/06/11 15:36:01;;;;;;;15.18;4.00;;;25.20;93.80;;;;;;4952585;29;20043;-86
2022/06/11 15:39:24;;;;;;;13.68;4.03;;;25.40;93.90;;;;;;4954736;29;20043;-86
2022/06/11 15:42:59;;;;;;;;;;;;;;;;;;;;;
2022/06/11 15:46:42;;;;;;;14.60;3.88;;;25.40;93.50;;;;;;4936741;29;20500;-86
2022/06/11 17:16:36;;;;;;;13.75;4.00;;;26.50;91.60;;;;;;4957135;29;20062;-86
2022/06/11 17:31:35;;;;;;;;;;;;;;;;;;;;;
2022/06/11 17:42:48;;;;;;;14.93;4.00;;;26.30;91.90;;;;;;5275499;23;20031;-87
2022/06/11 17:45:17;;;;;;;13.35;3.70;;;26.80;91.70;;;;;;4877760;29;20077;-86
2022/06/11 17:47:43;;;;;;;12.68;3.60;;;26.70;92.00;;;;;;4863233;29;20084;-86
2022/06/11 17:50:17;;;;;;;13.75;3.85;;;26.70;91.80;;;;;;4876994;29;20084;-85
2022/06/11 17:52:52;;;;;;;15.93;4.32;;;26.40;91.10;;;;;;4861869;29;20536;-87
2022/06/11 17:55:21;;;;;;;15.73;5.35;;;26.30;91.40;;;;;;4877879;29;20093;-86
2022/06/11 17:57:48;;;;;;;17.35;5.40;;;26.00;91.40;;;;;;4861668;29;20053;-86
2022/06/11 18:03:14;;;;;;;13.77;3.90;;;25.60;92.10;;;;;;5232422;23;20087;-85
2022/06/11 18:05:46;;;;;;;17.15;5.15;;;25.40;92.40;;;;;;4935411;29;20047;-86
2022/06/11 18:08:13;;;;;;;16.67;3.70;;;25.20;92.70;;;;;;4917145;29;20134;-86
2022/06/11 18:10:41;;;;;;;14.27;3.70;;;25.10;92.80;;;;;;4917954;29;20048;-86
2022/06/11 18:13:29;;;;;;;14.35;3.60;;;24.80;93.10;;;;;;4935310;29;20052;-87
2022/06/11 18:16:24;;;;;;;16.52;3.88;;;24.70;93.40;;;;;;4916478;29;20508;-87
2022/06/11 18:18:56;;;;;;;17.50;4.63;;;24.50;93.60;;;;;;5027904;23;20445;-87
2022/06/11 18:34:55;;;;;;;16.05;3.88;;;23.80;94.90;;;;;;4937656;29;20054;-85
2022/06/11 18:41:05;;;;;;;13.98;3.10;;;24.00;93.90;;;;;;4954428;29;20038;-85
2022/06/11 18:43:45;;;;;;;13.02;3.25;;;23.60;94.50;;;;;;4954113;28;20132;-85
2022/06/11 18:46:11;;;;;;;12.02;3.20;;;23.40;94.50;;;;;;4937115;29;20094;-84
2022/06/11 18:49:05;;;;;;;15.23;4.13;;;23.50;94.70;;;;;;4955110;28;20051;-84
2022/06/11 18:51:37;;;;;;;;;;;23.10;94.20;;;;;;4938129;29;20472;-85
2022/06/11 18:54:03;;;;;;;13.68;3.53;;;22.80;94.70;;;;;;4958683;28;19922;-88
2022/06/11 18:56:31;;;;;;;15.63;4.07;;;22.70;94.90;;;;;;4937400;29;20040;-85
2022/06/11 18:59:12;;;;;;;15.63;3.58;;;22.60;95.20;;;;;;5111941;23;20047;-85
2022/06/11 19:01:39;;;;;;;14.43;3.30;;;22.30;95.40;;;;;;4917997;29;20136;-86
2022/06/11 19:04:10;;;;;;;14.57;3.60;;;21.80;95.80;;;;;;4934405;29;20067;-86
2022/06/11 19:07:05;;;;;;;13.30;3.13;;;21.30;96.40;;;;;;4918380;29;20046;-85
2022/06/11 19:09:49;;;;;;;14.15;3.20;;;20.90;97.30;;;;;;4936315;29;20052;-86
2022/06/11 19:12:53;;;;;;;15.50;3.22;;;20.60;98.10;;;;;;4929072;29;20397;-86
2022/06/11 19:15:52;;;;;;;12.70;3.30;;;20.40;98.80;;;;;;4927432;29;20036;-86
2022/06/11 19:19:04;;;;;;;11.82;3.00;;;20.10;99.50;;;;;;4900432;29;20681;-88
2022/06/11 19:21:36;;;;;;;14.80;3.08;;;20.00;99.90;;;;;;4906666;29;20492;-86
2022/06/11 19:24:44;;;;;;;13.55;3.40;;;20.70;99.90;;;;;;4932226;29;20054;-86
2022/06/11 19:27:56;;;;;;;15.70;3.25;;;19.50;99.90;;;;;;4916999;29;20111;-85
2022/06/11 19:30:25;;;;;;;14.68;3.10;;;19.50;99.90;;;;;;4918206;29;20047;-86
2022/06/11 19:33:08;;;;;;;12.50;2.92;;;19.50;99.90;;;;;;4911031;29;20440;-86
2022/06/11 19:36:26;;;;;;;11.57;3.00;;;19.90;99.90;;;;;;4904013;29;20060;-85
2022/06/11 19:39:26;;;;;;;13.85;3.40;;;19.20;99.90;;;;;;4905315;29;20087;-86
2022/06/11 19:42:31;;;;;;;14.50;3.58;;;19.00;99.90;;;;;;4901225;29;20052;-85
2022/06/11 19:45:11;;;;;;;14.30;4.15;;;18.90;99.90;;;;;;4915744;29;20095;-86
2022/06/11 19:47:52;;;;;;;13.38;3.35;;;19.40;99.90;;;;;;4915520;29;20405;-87
2022/06/11 19:53:37;;;;;;;15.77;3.22;;;18.60;99.90;;;;;;4915720;29;20043;-86
2022/06/11 20:03:07;;;;;;;13.77;3.10;;;18.30;99.90;;;;;;4865060;29;20138;-87
2022/06/11 20:05:52;;;;;;;14.05;3.08;;;18.20;99.90;;;;;;4876049;29;20146;-86
2022/06/11 20:08:22;;;;;;;17.27;4.00;;;18.10;99.90;;;;;;4887448;29;20133;-86
2022/06/11 20:10:51;;;;;;;14.13;3.42;;;18.00;99.90;;;;;;4869296;29;20612;-87
2022/06/11 20:13:26;;;;;;;13.45;3.28;;;18.60;99.90;;;;;;4879089;29;20055;-86
2022/06/11 20:16:08;;;;;;;13.63;3.72;;;17.90;99.90;;;;;;4868262;29;20053;-85
2022/06/11 20:31:46;;;;;;;14.30;4.05;;;17.40;99.90;;;;;;4914302;29;20039;-84
2022/06/11 20:34:12;;;;;;;12.60;3.30;;;17.20;99.90;;;;;;4903528;29;20114;-84
2022/06/11 20:36:47;;;;;;;12.70;3.45;;;17.80;99.90;;;;;;4921069;29;20449;-85
2022/06/11 20:39:35;;;;;;;13.68;3.38;;;17.80;99.90;;;;;;4913536;29;20055;-84
2022/06/11 20:42:06;;;;;;;13.45;3.53;;;16.50;99.90;;;;;;4897861;29;20058;-85
2022/06/11 20:44:40;;;;;;;16.63;3.50;;;16.60;99.90;;;;;;4950211;23;20040;-85
2022/06/11 20:47:22;;;;;;;13.73;3.75;;;16.40;99.90;;;;;;4899365;29;20060;-84
2022/06/11 20:50:07;;;;;;;14.25;3.40;;;16.30;99.90;;;;;;4914643;29;20048;-85
2022/06/11 20:52:33;;;;;;;14.45;3.42;;;16.20;99.90;;;;;;4898436;29;20405;-85
2022/06/11 20:55:23;;;;;;;13.68;3.67;;;16.90;99.90;;;;;;4914060;29;20055;-85
2022/06/11 20:57:52;;;;;;;13.48;3.83;;;15.90;99.90;;;;;;4912918;29;20071;-84
2022/06/11 21:00:33;;;;;;;17.25;4.05;;;15.90;99.90;;;;;;4898222;29;20040;-84
2022/06/11 21:03:05;;;;;;;12.02;3.20;;;15.70;99.90;;;;;;4915030;29;20040;-84
2022/06/11 21:05:43;;;;;;;14.10;4.15;;;15.60;99.90;;;;;;4908984;29;20070;-84
2022/06/11 21:11:18;;;;;;;13.52;3.60;;;15.70;99.90;;;;;;4905081;29;20437;-84
2022/06/11 21:13:59;;;;;;;13.63;3.42;;;15.40;99.90;;;;;;4916442;29;20082;-85
2022/06/11 21:16:28;;;;;;;13.50;3.42;;;15.70;99.90;;;;;;4906263;29;20110;-84
2022/06/11 21:19:16;;;;;;;17.30;3.60;;;15.60;99.90;;;;;;4896503;29;20563;-85
2022/06/11 21:22:02;;;;;;;11.65;3.35;;;15.10;99.90;;;;;;4898250;29;20056;-84
2022/06/11 21:24:32;;;;;;;17.23;4.07;;;15.80;99.90;;;;;;4913934;29;20053;-84
2022/06/11 21:26:58;;;;;;;13.23;3.70;;;14.90;99.90;;;;;;4900580;29;20060;-84
2022/06/11 21:29:24;;;;;;;14.73;3.72;;;14.80;99.90;;;;;;4918839;29;20051;-84
2022/06/11 21:31:53;;;;;;;14.73;3.60;;;14.80;99.90;;;;;;4909748;29;20059;-85
2022/06/11 21:34:18;;;;;;;15.50;4.25;;;14.70;99.90;;;;;;4916597;29;20145;-84
2022/06/11 21:36:44;;;;;;;16.33;4.22;;;14.70;99.90;;;;;;4916775;29;20093;-84
2022/06/11 21:39:10;;;;;;;14.43;3.70;;;14.60;99.90;;;;;;4900882;29;20547;-84
2022/06/11 21:41:48;;;;;;;14.88;4.18;;;14.50;99.90;;;;;;4901418;29;20059;-84
2022/06/11 21:44:16;;;;;;;14.25;4.25;;;14.50;99.90;;;;;;4901161;29;20063;-84
2022/06/11 21:46:49;;;;;;;14.00;4.28;;;14.30;99.90;;;;;;4899875;29;20048;-84
2022/06/11 21:49:15;;;;;;;14.80;4.32;;;14.30;99.90;;;;;;4901079;29;20048;-84
2022/06/11 21:51:42;;;;;;;13.95;3.88;;;14.20;99.90;;;;;;4916734;29;20054;-85
2022/06/11 21:54:09;;;;;;;15.93;4.15;;;14.10;99.90;;;;;;4919955;29;20060;-86
2022/06/11 21:56:36;;;;;;;14.05;4.15;;;14.70;99.90;;;;;;4916946;29;20052;-84
2022/06/11 21:59:03;;;;;;;12.65;3.90;;;14.00;99.90;;;;;;4918165;29;20076;-83
2022/06/11 22:01:29;;;;;;;13.63;3.60;;;14.10;99.90;;;;;;4900395;29;20107;-84
2022/06/11 22:03:56;;;;;;;13.85;3.58;;;13.90;99.90;;;;;;4918203;29;20426;-84
2022/06/11 22:06:24;;;;;;;12.27;4.00;;;13.80;99.90;;;;;;4901466;29;20043;-84
2022/06/11 22:08:51;;;;;;;14.23;3.95;;;13.80;99.90;;;;;;4917156;29;20446;-83
2022/06/11 22:11:24;;;;;;;13.18;4.38;;;13.80;99.90;;;;;;4918617;29;20052;-84
2022/06/11 22:13:50;;;;;;;13.40;4.03;;;13.70;99.90;;;;;;4916752;29;20138;-84
2022/06/11 22:16:16;;;;;;;15.52;4.00;;;13.70;99.90;;;;;;4918004;29;20092;-84
2022/06/11 22:18:43;;;;;;;15.35;4.25;;;13.50;99.90;;;;;;4918253;29;20044;-84
2022/06/11 22:21:17;;;;;;;12.25;4.13;;;13.50;99.90;;;;;;4918297;29;20040;-84
2022/06/11 22:23:43;;;;;;;12.95;4.00;;;13.40;99.90;;;;;;4901267;29;20111;-84
2022/06/11 22:26:09;;;;;;;21.23;9.13;;;13.40;99.90;;;;;;4901361;29;20047;-84
2022/06/11 22:28:34;;;;;;;18.70;8.00;;;13.30;99.90;;;;;;4917533;29;20095;-84
2022/06/11 22:31:00;;;;;;;18.92;6.75;;;13.30;99.90;;;;;;4900928;29;20145;-84
2022/06/11 22:33:26;;;;;;;18.10;6.35;;;13.30;99.90;;;;;;4901248;29;20048;-84
2022/06/11 22:35:51;;;;;;;15.10;5.55;;;13.30;99.90;;;;;;4915574;29;20040;-84
2022/06/11 22:38:17;;;;;;;16.13;5.32;;;13.30;99.90;;;;;;4917832;29;20091;-84
2022/06/11 22:40:43;;;;;;;13.05;4.72;;;13.20;99.90;;;;;;4927178;23;20058;-85
2022/06/11 22:43:09;;;;;;;12.50;4.80;;;13.20;99.90;;;;;;4955857;29;20043;-84
2022/06/11 22:45:35;;;;;;;15.55;5.53;;;13.10;99.90;;;;;;4956128;28;20468;-84
2022/06/11 22:48:01;;;;;;;16.63;5.97;;;13.10;99.90;;;;;;4954578;28;20078;-84
2022/06/11 22:50:27;;;;;;;16.98;5.82;;;13.00;99.90;;;;;;4953926;29;20046;-84
2022/06/11 22:52:55;;;;;;;15.63;5.53;;;12.90;99.90;;;;;;4954442;28;20399;-84
2022/06/11 22:55:24;;;;;;;16.30;5.63;;;12.90;99.90;;;;;;4955765;28;20444;-84
2022/06/11 22:57:50;;;;;;;17.70;5.70;;;12.80;99.90;;;;;;4954408;28;20082;-84
2022/06/11 23:00:17;;;;;;;16.35;5.22;;;12.80;99.90;;;;;;4975578;23;20106;-84
2022/06/11 23:02:43;;;;;;;13.80;5.20;;;12.70;99.90;;;;;;4974880;28;20529;-84
2022/06/11 23:05:16;;;;;;;14.40;5.18;;;12.70;99.90;;;;;;4957719;28;20038;-84
2022/06/11 23:07:43;;;;;;;16.13;5.78;;;12.80;99.90;;;;;;4975343;28;20051;-84
2022/06/11 23:10:13;;;;;;;22.35;7.93;;;12.70;99.90;;;;;;4958134;28;20058;-84
2022/06/11 23:12:38;;;;;;;17.42;6.80;;;12.70;99.90;;;;;;4973958;28;20101;-83
2022/06/11 23:15:04;;;;;;;19.77;6.68;;;12.70;99.90;;;;;;4973666;28;20046;-84
2022/06/11 23:17:31;;;;;;;18.92;6.53;;;12.60;99.90;;;;;;4957102;28;20050;-84
2022/06/11 23:19:56;;;;;;;18.73;6.43;;;13.40;99.90;;;;;;4974555;28;20443;-84
2022/06/11 23:22:22;;;;;;;16.50;6.07;;;12.50;99.90;;;;;;4957632;28;20042;-84
2022/06/11 23:24:48;;;;;;;19.83;6.45;;;12.50;99.90;;;;;;4956142;28;20055;-84
2022/06/11 23:27:14;;;;;;;17.90;6.25;;;12.50;99.90;;;;;;4957427;28;20065;-84
2022/06/11 23:29:39;;;;;;;17.42;6.32;;;12.50;99.90;;;;;;4974538;28;20511;-84
2022/06/11 23:32:08;;;;;;;15.50;5.80;;;12.40;99.90;;;;;;4973330;28;20042;-84
2022/06/11 23:34:34;;;;;;;16.27;5.22;;;12.30;99.90;;;;;;4974250;28;20050;-84
2022/06/11 23:36:59;;;;;;;16.77;5.45;;;12.30;99.90;;;;;;4956898;28;20503;-84
2022/06/11 23:39:25;;;;;;;13.75;4.85;;;12.30;99.90;;;;;;4973800;28;20039;-84
2022/06/11 23:41:51;;;;;;;16.92;5.50;;;12.20;99.90;;;;;;4956694;28;20051;-84
2022/06/11 23:44:18;;;;;;;17.15;5.22;;;12.20;99.90;;;;;;4974097;28;20491;-84
2022/06/11 23:46:44;;;;;;;14.30;4.72;;;12.20;99.90;;;;;;4973579;28;20089;-83
2022/06/11 23:49:11;;;;;;;14.73;4.95;;;12.10;99.90;;;;;;4973587;28;20134;-84
2022/06/11 23:51:38;;;;;;;15.57;5.28;;;12.10;99.90;;;;;;4956997;28;20133;-84
2022/06/11 23:54:06;;;;;;;14.15;4.70;;;12.70;99.90;;;;;;4955632;28;20046;-84
2022/06/11 23:56:34;;;;;;;15.93;5.38;;;12.10;99.90;;;;;;4973880;28;20479;-83
2022/06/11 23:59:01;;;;;;;15.70;5.30;;;12.00;99.90;;;;;;4972570;28;20046;-84
